X  Sluiten METAR luchtvaart weer gegevens      EBBR Brussels Airport
Temperatuur
2°C Temperatuur
1°C Dauwpunt
93% Vochtigheid



Wind
11 KM/U
7 MPH
3 M/S
6 KTS



100°
Oosten
Huidig weer

Mist Mist
Luchtdruk 1024.92 (hPa) - 30.27 (inHg)
Zicht 1.9 (mijl) - 3 (km)
Vliegveld
Vliegveld code EBBR

Locatie : Brussels Airport
Afstand: 14 (km)

Metar:
EBBR 290950Z 10006KT 080V140 3500 BR BKN004 02/01 Q1025 BECMG 6000 NSW BKN007

Tijd: 2020-11-29 10:50 CET